Terminal Aerodrome Forecast
Issued by NWS

Home | Current Version | Previous Version | Text Only | Print | Product List | Glossary On
Versions: 1 2 3 4 5 6 7 8 9 10 11 12 13 14 15 16 17 18 19 20
000
FTAK31 PAJN 291137
TAFAYA
TAF
PAYA 291137Z 2912/3012 09006KT P6SM VCSH BKN010 OVC015
      TEMPO 2912/2916 4SM -SHRA BR OVC007
     FM291600 08004KT P6SM -SHRA SCT008 BKN018 OVC035
     FM292000 12006KT P6SM VCSH SCT020 OVC030
     FM300500 00000KT P6SM BKN040 OVC060
      AMD LTD TO CLD VIS AND WIND 3001/3009=

USA.gov is the U.S. government's official web portal to all federal, state and local government web resources and services.